sensor_id;sensor_type;location;lat;lon;timestamp;temperature;humidity
19192;DHT22;9728;48.194;16.346;2022-11-27T00:04:32;15.10;51.50
19192;DHT22;9728;48.194;16.346;2022-11-27T00:09:37;15.10;51.50
19192;DHT22;9728;48.194;16.346;2022-11-27T00:14:41;15.10;51.40
19192;DHT22;9728;48.194;16.346;2022-11-27T00:19:44;15.00;51.40
19192;DHT22;9728;48.194;16.346;2022-11-27T00:24:49;15.00;51.40
19192;DHT22;9728;48.194;16.346;2022-11-27T00:29:52;15.00;51.40
19192;DHT22;9728;48.194;16.346;2022-11-27T00:34:55;15.00;51.40
19192;DHT22;9728;48.194;16.346;2022-11-27T00:40:00;15.00;51.40
19192;DHT22;9728;48.194;16.346;2022-11-27T00:45:04;15.00;51.40
19192;DHT22;9728;48.194;16.346;2022-11-27T00:50:08;15.00;51.30
19192;DHT22;9728;48.194;16.346;2022-11-27T00:55:13;14.90;51.40
19192;DHT22;9728;48.194;16.346;2022-11-27T01:00:17;14.90;51.40
19192;DHT22;9728;48.194;16.346;2022-11-27T01:05:21;14.90;51.50
19192;DHT22;9728;48.194;16.346;2022-11-27T01:10:25;14.80;51.40
19192;DHT22;9728;48.194;16.346;2022-11-27T01:15:28;14.90;51.50
19192;DHT22;9728;48.194;16.346;2022-11-27T01:20:32;14.90;51.50
19192;DHT22;9728;48.194;16.346;2022-11-27T01:25:37;14.90;51.50
19192;DHT22;9728;48.194;16.346;2022-11-27T01:30:40;14.90;51.50
19192;DHT22;9728;48.194;16.346;2022-11-27T01:35:52;14.90;51.50
19192;DHT22;9728;48.194;16.346;2022-11-27T01:40:59;14.90;51.50
19192;DHT22;9728;48.194;16.346;2022-11-27T01:46:02;14.90;51.50
19192;DHT22;9728;48.194;16.346;2022-11-27T01:51:06;14.90;51.50
19192;DHT22;9728;48.194;16.346;2022-11-27T01:56:11;14.90;51.50
19192;DHT22;9728;48.194;16.346;2022-11-27T02:01:14;14.90;51.50
19192;DHT22;9728;48.194;16.346;2022-11-27T02:06:18;14.90;51.50
19192;DHT22;9728;48.194;16.346;2022-11-27T02:11:29;14.90;51.50
19192;DHT22;9728;48.194;16.346;2022-11-27T02:16:37;14.90;51.50
19192;DHT22;9728;48.194;16.346;2022-11-27T02:21:48;14.90;51.40
19192;DHT22;9728;48.194;16.346;2022-11-27T02:27:17;14.90;51.40
19192;DHT22;9728;48.194;16.346;2022-11-27T02:32:30;14.80;51.30
19192;DHT22;9728;48.194;16.346;2022-11-27T02:37:38;14.80;51.40
19192;DHT22;9728;48.194;16.346;2022-11-27T02:42:50;14.80;51.40
19192;DHT22;9728;48.194;16.346;2022-11-27T02:47:58;14.70;51.30
19192;DHT22;9728;48.194;16.346;2022-11-27T02:53:04;14.70;51.30
19192;DHT22;9728;48.194;16.346;2022-11-27T02:58:13;14.80;51.40
19192;DHT22;9728;48.194;16.346;2022-11-27T03:03:23;14.70;51.30
19192;DHT22;9728;48.194;16.346;2022-11-27T03:08:30;14.70;51.30
19192;DHT22;9728;48.194;16.346;2022-11-27T03:13:37;14.70;51.30
19192;DHT22;9728;48.194;16.346;2022-11-27T03:18:50;14.60;51.20
19192;DHT22;9728;48.194;16.346;2022-11-27T03:23:57;14.60;51.20
19192;DHT22;9728;48.194;16.346;2022-11-27T03:29:02;14.60;51.20
19192;DHT22;9728;48.194;16.346;2022-11-27T03:34:08;14.60;51.30
19192;DHT22;9728;48.194;16.346;2022-11-27T03:39:12;14.50;51.30
19192;DHT22;9728;48.194;16.346;2022-11-27T03:44:22;14.50;51.30
19192;DHT22;9728;48.194;16.346;2022-11-27T03:49:39;14.50;51.30
19192;DHT22;9728;48.194;16.346;2022-11-27T03:54:53;14.50;51.30
19192;DHT22;9728;48.194;16.346;2022-11-27T04:00:02;14.40;51.30
19192;DHT22;9728;48.194;16.346;2022-11-27T04:05:09;14.40;51.30
19192;DHT22;9728;48.194;16.346;2022-11-27T04:10:13;14.40;51.20
19192;DHT22;9728;48.194;16.346;2022-11-27T04:15:16;14.30;51.20
19192;DHT22;9728;48.194;16.346;2022-11-27T04:20:21;14.30;51.20
19192;DHT22;9728;48.194;16.346;2022-11-27T04:25:25;14.30;51.20
19192;DHT22;9728;48.194;16.346;2022-11-27T04:30:29;14.20;51.10
19192;DHT22;9728;48.194;16.346;2022-11-27T04:35:33;14.20;51.20
19192;DHT22;9728;48.194;16.346;2022-11-27T04:40:37;14.10;51.10
19192;DHT22;9728;48.194;16.346;2022-11-27T04:45:40;14.10;51.20
19192;DHT22;9728;48.194;16.346;2022-11-27T04:50:46;14.00;51.20
19192;DHT22;9728;48.194;16.346;2022-11-27T04:55:50;13.90;51.20
19192;DHT22;9728;48.194;16.346;2022-11-27T05:00:53;13.90;51.30
19192;DHT22;9728;48.194;16.346;2022-11-27T05:05:58;13.90;51.40
19192;DHT22;9728;48.194;16.346;2022-11-27T05:11:04;13.90;51.40
19192;DHT22;9728;48.194;16.346;2022-11-27T05:16:08;13.80;51.40
19192;DHT22;9728;48.194;16.346;2022-11-27T05:21:13;13.80;51.50
19192;DHT22;9728;48.194;16.346;2022-11-27T05:26:16;13.80;51.50
19192;DHT22;9728;48.194;16.346;2022-11-27T05:31:19;13.70;51.40
19192;DHT22;9728;48.194;16.346;2022-11-27T05:36:24;13.70;51.40
19192;DHT22;9728;48.194;16.346;2022-11-27T05:41:28;13.70;51.40
19192;DHT22;9728;48.194;16.346;2022-11-27T05:46:31;13.70;51.40
19192;DHT22;9728;48.194;16.346;2022-11-27T05:51:36;13.60;51.50
19192;DHT22;9728;48.194;16.346;2022-11-27T05:56:39;13.60;51.50
19192;DHT22;9728;48.194;16.346;2022-11-27T06:01:43;13.60;51.60
19192;DHT22;9728;48.194;16.346;2022-11-27T06:06:47;13.60;51.60
19192;DHT22;9728;48.194;16.346;2022-11-27T06:11:51;13.50;51.70
19192;DHT22;9728;48.194;16.346;2022-11-27T06:16:54;13.60;51.70
19192;DHT22;9728;48.194;16.346;2022-11-27T06:21:59;13.50;51.70
19192;DHT22;9728;48.194;16.346;2022-11-27T06:27:02;13.50;51.80
19192;DHT22;9728;48.194;16.346;2022-11-27T06:32:06;13.50;51.80
19192;DHT22;9728;48.194;16.346;2022-11-27T06:37:11;13.50;51.80
19192;DHT22;9728;48.194;16.346;2022-11-27T06:42:14;13.50;51.30
19192;DHT22;9728;48.194;16.346;2022-11-27T06:47:18;13.50;52.00
19192;DHT22;9728;48.194;16.346;2022-11-27T06:52:22;13.50;52.10
19192;DHT22;9728;48.194;16.346;2022-11-27T06:57:26;13.50;52.20
19192;DHT22;9728;48.194;16.346;2022-11-27T07:02:29;13.50;52.20
19192;DHT22;9728;48.194;16.346;2022-11-27T07:07:34;13.60;52.40
19192;DHT22;9728;48.194;16.346;2022-11-27T07:12:44;13.60;52.50
19192;DHT22;9728;48.194;16.346;2022-11-27T07:17:47;13.60;52.50
19192;DHT22;9728;48.194;16.346;2022-11-27T07:22:52;13.70;52.60
19192;DHT22;9728;48.194;16.346;2022-11-27T07:27:56;13.70;52.60
19192;DHT22;9728;48.194;16.346;2022-11-27T07:32:59;13.80;52.60
19192;DHT22;9728;48.194;16.346;2022-11-27T07:38:04;13.80;52.60
19192;DHT22;9728;48.194;16.346;2022-11-27T07:43:07;13.90;52.70
19192;DHT22;9728;48.194;16.346;2022-11-27T07:48:10;13.90;52.60
19192;DHT22;9728;48.194;16.346;2022-11-27T07:53:15;14.00;52.70
19192;DHT22;9728;48.194;16.346;2022-11-27T07:58:18;14.00;52.70
19192;DHT22;9728;48.194;16.346;2022-11-27T08:03:22;14.10;52.70
19192;DHT22;9728;48.194;16.346;2022-11-27T08:08:27;14.10;52.70
19192;DHT22;9728;48.194;16.346;2022-11-27T08:13:30;14.20;52.70
19192;DHT22;9728;48.194;16.346;2022-11-27T08:18:33;14.30;52.80
19192;DHT22;9728;48.194;16.346;2022-11-27T08:23:38;14.30;52.70
19192;DHT22;9728;48.194;16.346;2022-11-27T08:28:41;14.40;52.70
19192;DHT22;9728;48.194;16.346;2022-11-27T08:33:45;14.40;52.70
19192;DHT22;9728;48.194;16.346;2022-11-27T08:38:50;14.50;52.60
19192;DHT22;9728;48.194;16.346;2022-11-27T08:43:53;14.50;52.50
19192;DHT22;9728;48.194;16.346;2022-11-27T08:48:58;14.60;52.40
19192;DHT22;9728;48.194;16.346;2022-11-27T08:54:03;14.60;52.40
19192;DHT22;9728;48.194;16.346;2022-11-27T08:59:06;14.60;52.30
19192;DHT22;9728;48.194;16.346;2022-11-27T09:04:10;14.70;52.40
19192;DHT22;9728;48.194;16.346;2022-11-27T09:09:15;14.70;52.40
19192;DHT22;9728;48.194;16.346;2022-11-27T09:14:18;14.80;52.40
19192;DHT22;9728;48.194;16.346;2022-11-27T09:19:21;14.80;52.40
19192;DHT22;9728;48.194;16.346;2022-11-27T09:24:26;14.90;52.50
19192;DHT22;9728;48.194;16.346;2022-11-27T09:29:30;14.90;52.40
19192;DHT22;9728;48.194;16.346;2022-11-27T09:34:35;15.00;52.40
19192;DHT22;9728;48.194;16.346;2022-11-27T09:39:41;15.00;52.40
19192;DHT22;9728;48.194;16.346;2022-11-27T09:44:46;15.10;52.30
19192;DHT22;9728;48.194;16.346;2022-11-27T09:49:57;15.20;52.30
19192;DHT22;9728;48.194;16.346;2022-11-27T09:55:13;15.20;52.20
19192;DHT22;9728;48.194;16.346;2022-11-27T10:00:19;15.20;52.10
19192;DHT22;9728;48.194;16.346;2022-11-27T10:05:24;15.30;52.10
19192;DHT22;9728;48.194;16.346;2022-11-27T10:10:38;15.40;52.10
19192;DHT22;9728;48.194;16.346;2022-11-27T10:15:46;15.40;51.90
19192;DHT22;9728;48.194;16.346;2022-11-27T10:20:55;15.40;51.90
19192;DHT22;9728;48.194;16.346;2022-11-27T10:26:04;15.50;51.90
19192;DHT22;9728;48.194;16.346;2022-11-27T10:31:12;15.50;51.70
19192;DHT22;9728;48.194;16.346;2022-11-27T10:36:24;15.70;51.80
19192;DHT22;9728;48.194;16.346;2022-11-27T10:41:32;15.70;51.60
19192;DHT22;9728;48.194;16.346;2022-11-27T10:46:53;15.80;51.50
19192;DHT22;9728;48.194;16.346;2022-11-27T10:52:00;15.80;51.50
19192;DHT22;9728;48.194;16.346;2022-11-27T10:57:16;15.90;51.40
19192;DHT22;9728;48.194;16.346;2022-11-27T11:02:29;16.00;50.50
19192;DHT22;9728;48.194;16.346;2022-11-27T11:07:33;16.00;50.50
19192;DHT22;9728;48.194;16.346;2022-11-27T11:12:37;16.10;50.80
19192;DHT22;9728;48.194;16.346;2022-11-27T11:17:41;16.10;50.40
19192;DHT22;9728;48.194;16.346;2022-11-27T11:22:45;16.20;50.50
19192;DHT22;9728;48.194;16.346;2022-11-27T11:27:51;16.20;50.30
19192;DHT22;9728;48.194;16.346;2022-11-27T11:32:59;16.20;50.00
19192;DHT22;9728;48.194;16.346;2022-11-27T11:38:05;16.30;49.80
19192;DHT22;9728;48.194;16.346;2022-11-27T11:43:23;16.30;49.80
19192;DHT22;9728;48.194;16.346;2022-11-27T11:48:27;16.30;48.90
19192;DHT22;9728;48.194;16.346;2022-11-27T11:53:34;16.40;49.50
19192;DHT22;9728;48.194;16.346;2022-11-27T11:58:49;16.40;49.20
19192;DHT22;9728;48.194;16.346;2022-11-27T12:04:05;16.40;48.50
19192;DHT22;9728;48.194;16.346;2022-11-27T12:09:20;16.40;48.30
19192;DHT22;9728;48.194;16.346;2022-11-27T12:14:39;16.50;48.50
19192;DHT22;9728;48.194;16.346;2022-11-27T12:20:15;16.40;48.20
19192;DHT22;9728;48.194;16.346;2022-11-27T12:25:25;16.40;47.90
19192;DHT22;9728;48.194;16.346;2022-11-27T12:30:39;16.40;48.30
19192;DHT22;9728;48.194;16.346;2022-11-27T12:35:54;16.40;48.10
19192;DHT22;9728;48.194;16.346;2022-11-27T12:41:18;16.50;48.20
19192;DHT22;9728;48.194;16.346;2022-11-27T12:46:32;16.40;47.80
19192;DHT22;9728;48.194;16.346;2022-11-27T12:51:42;16.40;48.00
19192;DHT22;9728;48.194;16.346;2022-11-27T12:56:52;16.40;48.10
19192;DHT22;9728;48.194;16.346;2022-11-27T13:02:03;16.40;48.20
19192;DHT22;9728;48.194;16.346;2022-11-27T13:07:12;16.40;48.10
19192;DHT22;9728;48.194;16.346;2022-11-27T13:12:23;16.40;48.00
19192;DHT22;9728;48.194;16.346;2022-11-27T13:17:34;16.40;48.00
19192;DHT22;9728;48.194;16.346;2022-11-27T13:22:40;16.30;47.80
19192;DHT22;9728;48.194;16.346;2022-11-27T13:27:47;16.30;48.00
19192;DHT22;9728;48.194;16.346;2022-11-27T13:32:56;16.30;47.90
19192;DHT22;9728;48.194;16.346;2022-11-27T13:38:07;16.30;47.80
19192;DHT22;9728;48.194;16.346;2022-11-27T13:43:20;16.30;47.70
19192;DHT22;9728;48.194;16.346;2022-11-27T13:48:31;16.30;47.60
19192;DHT22;9728;48.194;16.346;2022-11-27T13:53:36;16.30;47.40
19192;DHT22;9728;48.194;16.346;2022-11-27T13:58:41;16.30;47.80
19192;DHT22;9728;48.194;16.346;2022-11-27T14:03:47;16.30;47.70
19192;DHT22;9728;48.194;16.346;2022-11-27T14:08:56;16.20;47.50
19192;DHT22;9728;48.194;16.346;2022-11-27T14:14:01;16.30;47.20
19192;DHT22;9728;48.194;16.346;2022-11-27T14:19:33;16.20;47.50
19192;DHT22;9728;48.194;16.346;2022-11-27T14:24:38;16.20;46.70
19192;DHT22;9728;48.194;16.346;2022-11-27T14:29:45;16.20;47.40
19192;DHT22;9728;48.194;16.346;2022-11-27T14:34:51;16.20;47.40
19192;DHT22;9728;48.194;16.346;2022-11-27T14:39:54;16.20;47.20
19192;DHT22;9728;48.194;16.346;2022-11-27T14:45:03;16.10;47.30
19192;DHT22;9728;48.194;16.346;2022-11-27T14:50:12;16.10;46.90
19192;DHT22;9728;48.194;16.346;2022-11-27T14:55:17;16.10;47.00
19192;DHT22;9728;48.194;16.346;2022-11-27T15:00:22;16.00;47.10
19192;DHT22;9728;48.194;16.346;2022-11-27T15:05:36;16.00;47.10
19192;DHT22;9728;48.194;16.346;2022-11-27T15:10:41;16.00;46.50
19192;DHT22;9728;48.194;16.346;2022-11-27T15:15:53;16.00;47.10
19192;DHT22;9728;48.194;16.346;2022-11-27T15:21:01;15.90;46.50
19192;DHT22;9728;48.194;16.346;2022-11-27T15:26:09;15.90;46.90
19192;DHT22;9728;48.194;16.346;2022-11-27T15:31:23;15.90;46.90
19192;DHT22;9728;48.194;16.346;2022-11-27T15:36:36;15.80;46.60
19192;DHT22;9728;48.194;16.346;2022-11-27T15:41:50;15.80;46.50
19192;DHT22;9728;48.194;16.346;2022-11-27T15:46:55;15.80;46.50
19192;DHT22;9728;48.194;16.346;2022-11-27T15:52:01;15.70;47.00
19192;DHT22;9728;48.194;16.346;2022-11-27T15:57:06;15.70;46.90
19192;DHT22;9728;48.194;16.346;2022-11-27T16:02:10;15.60;47.00
19192;DHT22;9728;48.194;16.346;2022-11-27T16:07:20;15.60;47.00
19192;DHT22;9728;48.194;16.346;2022-11-27T16:12:24;15.60;46.90
19192;DHT22;9728;48.194;16.346;2022-11-27T16:17:29;15.50;47.10
19192;DHT22;9728;48.194;16.346;2022-11-27T16:22:35;15.50;47.10
19192;DHT22;9728;48.194;16.346;2022-11-27T16:27:40;15.40;47.10
19192;DHT22;9728;48.194;16.346;2022-11-27T16:32:44;15.40;47.20
19192;DHT22;9728;48.194;16.346;2022-11-27T16:37:51;15.30;47.20
19192;DHT22;9728;48.194;16.346;2022-11-27T16:42:57;15.30;47.20
19192;DHT22;9728;48.194;16.346;2022-11-27T16:48:05;15.30;47.30
19192;DHT22;9728;48.194;16.346;2022-11-27T16:53:11;15.30;47.40
19192;DHT22;9728;48.194;16.346;2022-11-27T16:58:15;15.20;47.40
19192;DHT22;9728;48.194;16.346;2022-11-27T17:03:20;15.20;47.50
19192;DHT22;9728;48.194;16.346;2022-11-27T17:08:26;15.10;47.60
19192;DHT22;9728;48.194;16.346;2022-11-27T17:13:31;15.10;47.50
19192;DHT22;9728;48.194;16.346;2022-11-27T17:18:38;15.10;47.90
19192;DHT22;9728;48.194;16.346;2022-11-27T17:23:44;15.00;48.20
19192;DHT22;9728;48.194;16.346;2022-11-27T17:28:50;15.10;48.30
19192;DHT22;9728;48.194;16.346;2022-11-27T17:33:58;15.10;48.30
19192;DHT22;9728;48.194;16.346;2022-11-27T17:39:05;15.00;48.40
19192;DHT22;9728;48.194;16.346;2022-11-27T17:44:11;15.00;48.20
19192;DHT22;9728;48.194;16.346;2022-11-27T17:49:23;15.00;48.10
19192;DHT22;9728;48.194;16.346;2022-11-27T17:54:32;15.00;48.00
19192;DHT22;9728;48.194;16.346;2022-11-27T17:59:39;15.00;47.80
19192;DHT22;9728;48.194;16.346;2022-11-27T18:04:45;14.90;47.80
19192;DHT22;9728;48.194;16.346;2022-11-27T18:09:52;14.90;47.70
19192;DHT22;9728;48.194;16.346;2022-11-27T18:15:01;14.80;47.60
19192;DHT22;9728;48.194;16.346;2022-11-27T18:20:08;14.80;48.10
19192;DHT22;9728;48.194;16.346;2022-11-27T18:25:15;14.70;47.90
19192;DHT22;9728;48.194;16.346;2022-11-27T18:30:19;14.70;47.80
19192;DHT22;9728;48.194;16.346;2022-11-27T18:35:26;14.50;47.90
19192;DHT22;9728;48.194;16.346;2022-11-27T18:40:32;14.50;47.80
19192;DHT22;9728;48.194;16.346;2022-11-27T18:45:40;14.50;47.80
19192;DHT22;9728;48.194;16.346;2022-11-27T18:50:45;14.40;48.00
19192;DHT22;9728;48.194;16.346;2022-11-27T18:55:59;14.30;48.00
19192;DHT22;9728;48.194;16.346;2022-11-27T19:01:10;14.20;48.10
19192;DHT22;9728;48.194;16.346;2022-11-27T19:06:16;14.20;48.20
19192;DHT22;9728;48.194;16.346;2022-11-27T19:11:25;14.10;48.30
19192;DHT22;9728;48.194;16.346;2022-11-27T19:16:32;14.00;48.30
19192;DHT22;9728;48.194;16.346;2022-11-27T19:21:39;14.00;48.50
19192;DHT22;9728;48.194;16.346;2022-11-27T19:26:52;13.90;48.60
19192;DHT22;9728;48.194;16.346;2022-11-27T19:32:00;13.80;48.80
19192;DHT22;9728;48.194;16.346;2022-11-27T19:37:07;13.70;48.80
19192;DHT22;9728;48.194;16.346;2022-11-27T19:42:14;13.70;49.10
19192;DHT22;9728;48.194;16.346;2022-11-27T19:47:26;13.60;49.20
19192;DHT22;9728;48.194;16.346;2022-11-27T19:52:34;13.50;49.40
19192;DHT22;9728;48.194;16.346;2022-11-27T19:57:43;13.40;49.30
19192;DHT22;9728;48.194;16.346;2022-11-27T20:02:48;13.40;49.60
19192;DHT22;9728;48.194;16.346;2022-11-27T20:07:56;13.40;49.60
19192;DHT22;9728;48.194;16.346;2022-11-27T20:13:06;13.30;49.70
19192;DHT22;9728;48.194;16.346;2022-11-27T20:18:13;13.30;50.00
19192;DHT22;9728;48.194;16.346;2022-11-27T20:23:19;13.30;49.90
19192;DHT22;9728;48.194;16.346;2022-11-27T20:28:27;13.20;49.90
19192;DHT22;9728;48.194;16.346;2022-11-27T20:33:32;13.20;50.10
19192;DHT22;9728;48.194;16.346;2022-11-27T20:38:38;13.20;50.10
19192;DHT22;9728;48.194;16.346;2022-11-27T20:43:45;13.10;50.20
19192;DHT22;9728;48.194;16.346;2022-11-27T20:48:53;13.10;50.40
19192;DHT22;9728;48.194;16.346;2022-11-27T20:54:00;13.10;50.40
19192;DHT22;9728;48.194;16.346;2022-11-27T20:59:09;13.10;50.50
19192;DHT22;9728;48.194;16.346;2022-11-27T21:04:18;13.10;51.30
19192;DHT22;9728;48.194;16.346;2022-11-27T21:09:23;13.00;50.70
19192;DHT22;9728;48.194;16.346;2022-11-27T21:14:29;13.00;50.60
19192;DHT22;9728;48.194;16.346;2022-11-27T21:19:33;13.00;50.70
19192;DHT22;9728;48.194;16.346;2022-11-27T21:24:38;13.00;50.80
19192;DHT22;9728;48.194;16.346;2022-11-27T21:29:44;12.90;50.70
19192;DHT22;9728;48.194;16.346;2022-11-27T21:34:50;12.90;50.90
19192;DHT22;9728;48.194;16.346;2022-11-27T21:39:53;12.90;50.90
19192;DHT22;9728;48.194;16.346;2022-11-27T21:45:00;12.90;51.00
19192;DHT22;9728;48.194;16.346;2022-11-27T21:50:05;12.90;51.10
19192;DHT22;9728;48.194;16.346;2022-11-27T21:55:12;12.80;51.00
19192;DHT22;9728;48.194;16.346;2022-11-27T22:00:18;12.90;51.10
19192;DHT22;9728;48.194;16.346;2022-11-27T22:05:21;12.80;51.30
19192;DHT22;9728;48.194;16.346;2022-11-27T22:10:25;12.90;51.20
19192;DHT22;9728;48.194;16.346;2022-11-27T22:15:30;12.90;51.20
19192;DHT22;9728;48.194;16.346;2022-11-27T22:20:33;12.80;51.50
19192;DHT22;9728;48.194;16.346;2022-11-27T22:25:37;12.80;51.30
19192;DHT22;9728;48.194;16.346;2022-11-27T22:30:42;12.80;51.40
19192;DHT22;9728;48.194;16.346;2022-11-27T22:35:46;12.80;51.50
19192;DHT22;9728;48.194;16.346;2022-11-27T22:40:49;12.80;51.40
19192;DHT22;9728;48.194;16.346;2022-11-27T22:45:54;12.80;51.50
19192;DHT22;9728;48.194;16.346;2022-11-27T22:50:58;12.80;51.50
19192;DHT22;9728;48.194;16.346;2022-11-27T22:56:05;12.80;51.50
19192;DHT22;9728;48.194;16.346;2022-11-27T23:01:14;12.80;51.70
19192;DHT22;9728;48.194;16.346;2022-11-27T23:06:19;12.80;51.70
19192;DHT22;9728;48.194;16.346;2022-11-27T23:11:26;12.80;51.60
19192;DHT22;9728;48.194;16.346;2022-11-27T23:16:30;12.80;51.60
19192;DHT22;9728;48.194;16.346;2022-11-27T23:21:35;12.80;51.70
19192;DHT22;9728;48.194;16.346;2022-11-27T23:26:40;12.90;51.70
19192;DHT22;9728;48.194;16.346;2022-11-27T23:31:44;12.90;51.70
19192;DHT22;9728;48.194;16.346;2022-11-27T23:36:48;12.90;51.80
19192;DHT22;9728;48.194;16.346;2022-11-27T23:41:51;12.90;51.80
19192;DHT22;9728;48.194;16.346;2022-11-27T23:46:56;12.90;51.80
19192;DHT22;9728;48.194;16.346;2022-11-27T23:51:59;12.90;51.90
19192;DHT22;9728;48.194;16.346;2022-11-27T23:57:03;12.90;51.80
